Time;durP1;ratioP1;P1;durP2;ratioP2;P2;SDS_P1;SDS_P2;PMS_P1;PMS_P2;Temp;Humidity;BMP_temperature;BMP_pressure;BME280_temperature;BME280_humidity;BME280_pressure;Samples;Min_cycle;Max_cycle;Signal;HPM_P1;HPM_P2
2023/03/25 00:02:59;;;;;;;14.55;9.38;;;;;;;12.58;61.27;100244.90;1769794;80;21175;-58
2023/03/25 00:06:06;;;;;;;13.88;9.28;;;;;;;12.57;61.31;100251.45;1769807;81;21220;-59
2023/03/25 00:09:12;;;;;;;14.43;9.20;;;;;;;12.56;61.35;100251.13;1745160;81;21196;-59
2023/03/25 00:12:19;;;;;;;17.70;9.60;;;;;;;12.55;61.39;100246.15;1769708;81;21768;-59
2023/03/25 00:15:25;;;;;;;15.00;9.73;;;;;;;12.54;61.38;100247.17;1769872;80;21267;-59
2023/03/25 00:18:36;;;;;;;18.25;10.00;;;;;;;12.53;61.38;100248.23;1747276;81;21208;-60
2023/03/25 00:21:45;;;;;;;16.40;9.70;;;;;;;12.53;61.36;100254.23;1769665;81;21347;-59
2023/03/25 00:24:55;;;;;;;19.37;10.88;;;;;;;12.52;61.39;100252.03;1769884;81;21271;-60
2023/03/25 00:28:00;;;;;;;15.10;9.93;;;;;;;12.51;61.44;100250.30;1769736;81;21173;-60
2023/03/25 00:31:07;;;;;;;14.43;10.13;;;;;;;12.51;61.45;100261.29;1769617;81;21267;-59
2023/03/25 00:34:15;;;;;;;14.78;10.32;;;;;;;12.49;61.45;100241.95;1769743;81;21242;-59
2023/03/25 00:37:24;;;;;;;14.50;9.93;;;;;;;12.47;61.44;100242.13;1769686;81;21753;-59
2023/03/25 00:40:33;;;;;;;18.27;10.82;;;;;;;12.47;61.46;100244.02;1769669;81;21330;-59
2023/03/25 00:43:39;;;;;;;18.17;10.18;;;;;;;12.43;61.46;100235.31;1767782;79;21753;-59
2023/03/25 00:46:45;;;;;;;17.05;11.30;;;;;;;12.44;61.51;100233.42;1767016;81;21193;-59
2023/03/25 00:49:54;;;;;;;17.02;10.30;;;;;;;12.43;61.49;100248.20;1766814;81;21184;-60
2023/03/25 00:52:59;;;;;;;17.62;10.65;;;;;;;12.40;61.54;100248.05;1767305;81;21251;-61
2023/03/25 00:56:06;;;;;;;17.32;11.00;;;;;;;12.40;61.56;100252.70;1767202;80;21259;-59
2023/03/25 00:59:12;;;;;;;15.85;10.25;;;;;;;12.38;61.60;100243.30;1767267;81;21239;-60
2023/03/25 01:02:20;;;;;;;16.60;10.93;;;;;;;12.37;61.62;100248.43;1767409;81;21196;-60
2023/03/25 01:05:27;;;;;;;15.78;11.00;;;;;;;12.37;61.64;100237.45;1767214;81;21418;-59
2023/03/25 01:08:34;;;;;;;17.90;10.95;;;;;;;12.34;61.66;100237.84;1766801;81;21251;-60
2023/03/25 01:11:40;;;;;;;18.30;10.63;;;;;;;12.32;61.70;100241.28;1767365;81;21161;-59
2023/03/25 01:14:46;;;;;;;13.93;10.48;;;;;;;12.30;61.75;100239.27;1766948;81;21216;-59
2023/03/25 01:17:52;;;;;;;14.43;10.15;;;;;;;12.30;61.80;100250.77;1767240;80;21563;-59
2023/03/25 01:20:59;;;;;;;16.95;10.28;;;;;;;12.29;61.78;100256.77;1767113;81;21358;-59
2023/03/25 01:24:10;;;;;;;17.07;9.98;;;;;;;12.24;61.76;100250.16;1767369;81;21375;-58
2023/03/25 01:27:15;;;;;;;16.45;10.40;;;;;;;12.20;61.77;100248.30;1767286;81;21204;-58
2023/03/25 01:30:22;;;;;;;17.25;10.40;;;;;;;12.15;61.81;100246.64;1767297;81;21397;-59
2023/03/25 01:33:29;;;;;;;14.07;9.95;;;;;;;12.11;61.83;100246.70;1767201;80;21193;-59
2023/03/25 01:36:45;;;;;;;16.12;10.08;;;;;;;12.06;61.83;100245.05;1767188;81;21492;-60
2023/03/25 01:39:46;;;;;;;15.03;9.60;;;;;;;12.03;61.87;100242.69;1766903;80;21216;-60
2023/03/25 01:42:54;;;;;;;14.73;9.80;;;;;;;11.99;61.90;100235.84;1767248;80;21339;-59
2023/03/25 01:46:01;;;;;;;13.30;9.70;;;;;;;11.97;61.97;100244.27;1759817;80;21331;-60
2023/03/25 01:49:07;;;;;;;19.75;9.15;;;;;;;11.95;62.01;100243.63;1759483;81;21339;-59
2023/03/25 01:52:20;;;;;;;14.40;9.50;;;;;;;11.89;62.04;100236.13;1759411;81;21209;-60
2023/03/25 01:55:26;;;;;;;13.62;9.20;;;;;;;11.86;62.07;100230.19;1759362;81;21323;-61
2023/03/25 01:58:34;;;;;;;12.80;8.75;;;;;;;11.81;62.12;100227.16;1759489;81;21378;-58
2023/03/25 02:01:40;;;;;;;12.35;8.63;;;;;;;11.77;62.18;100232.66;1699596;83;21184;-58
2023/03/25 02:05:09;;;;;;;14.00;8.73;;;;;;;11.73;62.24;100228.61;1702370;84;21249;-59
2023/03/25 02:08:17;;;;;;;12.90;8.43;;;;;;;11.68;62.23;100226.94;1722803;83;21189;-59
2023/03/25 02:11:27;;;;;;;13.05;7.83;;;;;;;11.64;62.28;100233.31;1692460;85;21233;-59
2023/03/25 02:14:35;;;;;;;13.20;8.23;;;;;;;11.63;62.31;100231.62;1708073;83;21205;-58
2023/03/25 02:17:56;;;;;;;13.55;8.40;;;;;;;11.63;62.36;100229.38;1692602;84;21213;-59
2023/03/25 02:21:51;;;;;;;13.78;8.78;;;;;;;11.62;62.41;100232.60;1759404;81;21536;-59
2023/03/25 02:25:08;;;;;;;14.38;8.35;;;;;;;11.64;62.42;100226.45;1759531;81;21177;-59
2023/03/25 02:28:40;;;;;;;14.98;8.28;;;;;;;11.66;62.50;100226.27;1759442;81;21165;-58
2023/03/25 02:32:14;;;;;;;18.00;9.00;;;;;;;11.65;62.48;100224.03;1759406;81;21287;-58
2023/03/25 02:35:51;;;;;;;17.90;9.18;;;;;;;11.63;62.48;100218.42;1759676;81;21248;-58
2023/03/25 02:39:00;;;;;;;15.45;8.38;;;;;;;11.60;62.49;100216.02;1708524;83;21200;-58
2023/03/25 02:42:33;;;;;;;12.47;7.97;;;;;;;11.58;62.53;100216.71;1702538;84;21237;-59
2023/03/25 02:45:41;;;;;;;16.50;8.45;;;;;;;11.54;62.52;100221.71;1722807;82;21224;-58
2023/03/25 02:49:08;;;;;;;14.03;9.15;;;;;;;11.51;62.58;100223.45;1692734;85;21383;-60
2023/03/25 02:52:24;;;;;;;16.50;7.70;;;;;;;11.48;62.60;100214.78;1723094;83;21324;-58
2023/03/25 02:55:32;;;;;;;14.35;8.45;;;;;;;11.45;62.53;100217.86;1692750;85;21371;-59
2023/03/25 02:58:37;;;;;;;12.50;7.67;;;;;;;11.40;62.45;100221.70;1723135;82;21201;-59
2023/03/25 03:01:44;;;;;;;14.95;8.40;;;;;;;11.33;62.38;100219.35;1702916;84;21204;-59
2023/03/25 03:05:03;;;;;;;15.40;8.95;;;;;;;11.25;62.33;100220.80;1699010;84;21205;-60
2023/03/25 03:08:41;;;;;;;15.13;8.28;;;;;;;11.20;62.36;100217.74;1722816;83;21205;-59
2023/03/25 03:12:19;;;;;;;14.80;8.08;;;;;;;11.15;62.39;100212.82;1692586;85;21193;-58
2023/03/25 03:15:35;;;;;;;16.07;7.67;;;;;;;11.11;62.46;100222.45;1723006;82;21212;-59
2023/03/25 03:19:01;;;;;;;11.53;7.10;;;;;;;11.06;62.49;100213.06;1679552;84;21268;-58
2023/03/25 03:22:13;;;;;;;14.35;7.35;;;;;;;11.03;62.53;100207.96;1702729;84;21225;-59
2023/03/25 03:25:30;;;;;;;16.52;7.30;;;;;;;10.99;62.57;100214.31;1723049;83;21213;-59
2023/03/25 03:28:46;;;;;;;11.45;6.83;;;;;;;10.98;62.61;100220.84;1692591;85;21189;-59
2023/03/25 03:32:15;;;;;;;15.65;7.08;;;;;;;10.98;62.70;100224.09;1723145;82;21283;-59
2023/03/25 03:35:37;;;;;;;9.25;6.37;;;;;;;10.96;62.68;100220.67;1702987;83;21261;-59
2023/03/25 03:38:52;;;;;;;10.70;6.12;;;;;;;10.93;62.66;100219.66;1724036;82;21260;-59
2023/03/25 03:42:03;;;;;;;11.70;6.55;;;;;;;10.86;62.60;100215.97;1703249;83;21220;-59
2023/03/25 03:45:16;;;;;;;11.70;6.90;;;;;;;10.80;62.62;100214.80;1722889;82;21209;-59
2023/03/25 03:48:29;;;;;;;9.33;6.40;;;;;;;10.76;62.68;100204.39;1693234;82;21240;-59
2023/03/25 03:51:46;;;;;;;10.55;6.40;;;;;;;10.73;62.75;100212.46;1722891;83;21217;-59
2023/03/25 03:54:59;;;;;;;9.30;5.72;;;;;;;10.71;62.80;100217.77;1722840;83;21194;-59
2023/03/25 03:58:08;;;;;;;12.70;5.55;;;;;;;10.68;62.84;100212.66;1723126;83;21213;-59
2023/03/25 04:01:29;;;;;;;9.40;5.78;;;;;;;10.67;62.86;100220.55;1722770;83;21232;-58
2023/03/25 04:04:37;;;;;;;10.35;5.55;;;;;;;10.63;62.83;100217.30;1722830;83;21205;-60
2023/03/25 04:08:10;;;;;;;10.98;5.50;;;;;;;10.61;62.84;100218.53;1722873;83;21197;-60
2023/03/25 04:11:21;;;;;;;7.05;5.25;;;;;;;10.55;62.83;100210.00;1722803;83;21224;-60
2023/03/25 04:14:27;;;;;;;8.93;5.55;;;;;;;10.54;62.91;100213.75;1702880;83;21225;-60
2023/03/25 04:17:34;;;;;;;8.48;4.70;;;;;;;10.53;62.95;100211.19;1698775;84;21225;-58
2023/03/25 04:20:43;;;;;;;9.65;4.67;;;;;;;10.50;62.98;100211.05;1723257;82;21410;-59
2023/03/25 04:23:50;;;;;;;10.20;5.40;;;;;;;10.50;63.05;100208.31;1722824;82;21205;-59
2023/03/25 04:26:58;;;;;;;8.58;4.55;;;;;;;10.52;63.10;100219.08;1722915;83;21208;-60
2023/03/25 04:30:04;;;;;;;10.82;5.22;;;;;;;10.51;63.11;100210.55;1722864;83;21373;-59
2023/03/25 04:33:10;;;;;;;9.55;4.35;;;;;;;10.51;63.12;100215.48;1722883;82;21195;-58
2023/03/25 04:36:18;;;;;;;8.65;4.65;;;;;;;10.53;63.14;100208.45;1722926;82;21224;-58
2023/03/25 04:39:28;;;;;;;10.90;5.00;;;;;;;10.53;63.21;100210.69;1722889;82;21205;-58
2023/03/25 04:42:36;;;;;;;9.40;5.10;;;;;;;10.55;63.25;100207.27;1722828;83;21225;-58
2023/03/25 04:45:47;;;;;;;11.15;5.42;;;;;;;10.59;63.33;100205.02;1722853;83;21192;-59
2023/03/25 04:48:52;;;;;;;7.33;4.87;;;;;;;10.63;63.37;100204.13;1727197;81;21244;-59
2023/03/25 04:52:01;;;;;;;8.05;4.85;;;;;;;10.65;63.36;100213.87;1731068;83;21410;-59
2023/03/25 04:55:11;;;;;;;9.83;5.17;;;;;;;10.66;63.39;100214.20;1731358;83;21386;-58
2023/03/25 04:58:12;;;;;;;7.58;4.42;;;;;;;10.69;63.50;100211.64;1715548;83;21398;-60
2023/03/25 05:01:10;;;;;;;6.83;4.60;;;;;;;10.71;63.54;100209.55;1720761;83;21208;-60
2023/03/25 05:03:56;;;;;;;7.37;4.33;;;;;;;10.75;63.65;100213.11;1731067;83;21200;-60
2023/03/25 05:06:50;;;;;;;9.75;4.55;;;;;;;10.82;63.73;100211.88;1720466;83;21255;-58
2023/03/25 05:09:58;;;;;;;8.38;4.35;;;;;;;10.91;63.78;100212.17;1715247;83;21196;-60
2023/03/25 05:13:08;;;;;;;9.53;4.58;;;;;;;10.98;63.85;100209.02;1720293;83;21201;-60
2023/03/25 05:16:15;;;;;;;6.22;4.10;;;;;;;11.09;63.89;100209.96;1720241;83;21351;-60
2023/03/25 05:19:22;;;;;;;8.83;4.70;;;;;;;11.21;63.93;100211.25;1764803;80;21212;-60
2023/03/25 05:22:28;;;;;;;9.83;4.90;;;;;;;11.34;63.98;100207.34;1764503;81;21256;-59
2023/03/25 05:25:36;;;;;;;7.80;4.22;;;;;;;11.49;63.98;100208.25;1764823;81;21251;-59
2023/03/25 05:28:42;;;;;;;11.15;4.42;;;;;;;11.65;63.98;100199.90;1750672;81;21189;-58
2023/03/25 05:31:51;;;;;;;6.40;4.22;;;;;;;11.83;63.95;100203.97;1763160;81;21256;-60
2023/03/25 05:35:01;;;;;;;7.20;4.28;;;;;;;11.99;63.92;100203.80;1764757;81;21208;-60
2023/03/25 05:38:17;;;;;;;7.03;4.05;;;;;;;12.19;63.95;100209.56;1764909;81;21186;-59
2023/03/25 05:41:21;;;;;;;6.60;4.22;;;;;;;12.34;63.87;100203.52;1764855;81;21188;-59
2023/03/25 05:44:27;;;;;;;12.40;4.20;;;;;;;12.46;63.71;100212.99;1764817;81;21209;-59
2023/03/25 05:47:35;;;;;;;11.08;4.87;;;;;;;12.54;63.68;100205.98;1764746;81;21255;-60
2023/03/25 05:50:46;;;;;;;16.30;4.67;;;;;;;12.62;63.58;100203.13;1764947;81;21575;-60
2023/03/25 05:53:53;;;;;;;7.37;4.58;;;;;;;12.72;63.58;100208.31;1766252;80;21194;-60
2023/03/25 05:56:59;;;;;;;7.72;4.53;;;;;;;12.83;63.57;100206.42;1730354;82;21240;-59
2023/03/25 06:00:07;;;;;;;10.03;4.90;;;;;;;12.93;63.53;100204.22;1734910;82;21248;-60
2023/03/25 06:03:14;;;;;;;10.88;4.30;;;;;;;13.06;63.51;100201.66;1721873;82;21817;-59
2023/03/25 06:06:24;;;;;;;9.90;4.42;;;;;;;13.14;63.39;100192.77;1673957;85;21395;-60
2023/03/25 06:09:29;;;;;;;7.60;4.65;;;;;;;13.24;63.34;100191.89;1673831;85;21855;-60
2023/03/25 06:12:37;;;;;;;9.20;4.45;;;;;;;13.36;63.37;100193.07;1709726;82;21253;-59
2023/03/25 06:15:43;;;;;;;6.05;4.05;;;;;;;13.57;63.47;100192.70;1704363;83;21223;-60
2023/03/25 06:18:55;;;;;;;5.35;3.98;;;;;;;13.81;63.51;100200.50;1741598;82;21184;-60
2023/03/25 06:22:02;;;;;;;5.83;4.15;;;;;;;14.03;63.44;100186.99;1703718;84;21232;-60
2023/03/25 06:25:10;;;;;;;8.23;3.90;;;;;;;14.23;63.39;100189.31;1742315;81;21797;-60
2023/03/25 06:28:17;;;;;;;5.90;3.80;;;;;;;14.44;63.29;100185.12;1706068;84;21193;-59
2023/03/25 06:31:27;;;;;;;6.30;4.10;;;;;;;14.61;63.16;100190.58;1742022;82;21231;-59
2023/03/25 06:34:35;;;;;;;7.80;4.15;;;;;;;14.75;62.99;100188.19;1705224;84;21205;-60
2023/03/25 06:37:42;;;;;;;6.20;4.00;;;;;;;14.87;62.82;100187.38;1742560;81;21712;-61
2023/03/25 06:40:51;;;;;;;7.50;4.15;;;;;;;14.95;62.63;100189.94;1707480;84;21240;-61
2023/03/25 06:43:59;;;;;;;11.50;4.80;;;;;;;14.97;62.34;100187.83;1742758;82;21203;-60
2023/03/25 06:47:10;;;;;;;8.15;5.17;;;;;;;15.05;62.30;100182.64;1706224;84;21741;-60
2023/03/25 06:50:18;;;;;;;11.60;4.85;;;;;;;15.01;62.03;100178.62;1743221;81;21231;-62
2023/03/25 06:53:26;;;;;;;9.58;5.60;;;;;;;15.04;61.97;100176.82;1745518;81;21346;-61
2023/03/25 06:56:32;;;;;;;8.38;4.78;;;;;;;15.11;62.00;100176.28;1712598;84;21228;-60
2023/03/25 06:59:38;;;;;;;6.75;4.67;;;;;;;15.22;62.01;100172.07;1713234;82;21307;-60
2023/03/25 07:02:45;;;;;;;7.40;4.83;;;;;;;15.39;62.05;100165.97;1737949;82;21192;-60
2023/03/25 07:05:51;;;;;;;7.17;4.60;;;;;;;15.52;61.93;100171.48;1756197;81;21313;-60
2023/03/25 07:08:57;;;;;;;9.80;5.15;;;;;;;15.67;61.87;100169.86;1708343;84;21224;-59
2023/03/25 07:12:04;;;;;;;8.65;5.65;;;;;;;15.78;61.68;100172.83;1708752;84;21228;-60
2023/03/25 07:15:13;;;;;;;6.20;4.40;;;;;;;15.89;61.58;100172.17;1708898;83;21189;-60
2023/03/25 07:18:20;;;;;;;6.70;4.40;;;;;;;16.06;61.54;100167.05;1694117;83;21240;-59
2023/03/25 07:21:26;;;;;;;7.05;5.37;;;;;;;16.17;61.33;100157.55;1699297;84;21280;-59
2023/03/25 07:24:32;;;;;;;6.28;4.78;;;;;;;16.30;61.13;100157.50;1699423;84;21204;-60
2023/03/25 07:27:38;;;;;;;7.75;5.40;;;;;;;16.36;60.84;100161.33;1697326;82;21785;-59
2023/03/25 07:30:45;;;;;;;7.58;5.62;;;;;;;16.35;60.62;100153.56;1691977;84;21602;-59
2023/03/25 07:33:44;;;;;;;9.13;5.83;;;;;;;16.36;60.43;100149.72;1692517;84;21220;-59
2023/03/25 07:36:50;;;;;;;11.60;5.97;;;;;;;16.38;60.25;100153.12;1692829;84;21268;-60
2023/03/25 07:39:55;;;;;;;10.45;6.60;;;;;;;16.38;60.10;100150.88;1694984;84;21181;-60
2023/03/25 07:43:00;;;;;;;16.45;7.17;;;;;;;16.48;59.98;100153.20;1672705;86;21805;-60
2023/03/25 07:46:07;;;;;;;10.70;7.30;;;;;;;16.47;59.73;100148.77;1693348;84;21224;-58
2023/03/25 07:49:13;;;;;;;14.95;7.35;;;;;;;16.50;59.62;100149.70;1672094;85;21213;-61
2023/03/25 07:52:19;;;;;;;15.65;9.93;;;;;;;16.56;59.50;100141.91;1698120;82;21221;-58
2023/03/25 07:55:26;;;;;;;15.53;10.78;;;;;;;16.62;59.30;100145.20;1711753;83;21597;-58
2023/03/25 07:58:32;;;;;;;16.60;7.62;;;;;;;16.55;58.97;100131.93;1708101;83;21798;-61
2023/03/25 08:01:39;;;;;;;15.65;6.78;;;;;;;16.50;59.04;100130.36;1709678;83;21260;-58
2023/03/25 08:04:45;;;;;;;12.50;7.83;;;;;;;16.60;59.13;100127.98;1701952;83;21327;-60
2023/03/25 08:07:52;;;;;;;13.70;8.15;;;;;;;16.72;59.07;100122.05;1741715;81;21193;-59
2023/03/25 08:10:58;;;;;;;13.20;8.10;;;;;;;16.85;58.99;100119.20;1706600;84;21212;-60
2023/03/25 08:14:03;;;;;;;13.35;8.88;;;;;;;16.89;58.76;100119.92;1745983;81;21195;-59
2023/03/25 08:17:13;;;;;;;13.18;8.05;;;;;;;16.96;58.62;100116.59;1735574;82;21362;-58
2023/03/25 08:20:19;;;;;;;11.95;8.15;;;;;;;17.05;58.53;100116.61;1716644;82;21251;-58
2023/03/25 08:23:27;;;;;;;14.80;8.68;;;;;;;17.17;58.46;100107.07;1735329;82;21353;-59
2023/03/25 08:26:33;;;;;;;12.95;9.13;;;;;;;17.33;58.34;100107.34;1739695;81;21224;-58
2023/03/25 08:29:39;;;;;;;19.85;12.80;;;;;;;17.52;58.24;100111.05;1677370;85;21251;-60
2023/03/25 08:32:52;;;;;;;21.17;10.98;;;;;;;17.70;58.13;100108.30;1679029;83;21798;-60
2023/03/25 08:35:55;;;;;;;16.52;10.65;;;;;;;17.86;57.85;100100.78;1763413;80;21558;-60
2023/03/25 08:39:06;;;;;;;18.10;10.98;;;;;;;17.95;57.68;100105.50;1764778;81;21189;-59
2023/03/25 08:42:09;;;;;;;20.92;12.50;;;;;;;18.07;57.61;100097.57;1765081;81;21247;-59
2023/03/25 08:45:16;;;;;;;22.02;13.70;;;;;;;18.26;57.47;100101.17;1764421;81;21741;-58
2023/03/25 08:48:23;;;;;;;20.30;14.78;;;;;;;18.25;57.11;100100.31;1765821;80;21230;-59
2023/03/25 08:51:30;;;;;;;23.07;15.15;;;;;;;18.24;56.91;100098.63;1746678;81;21179;-59
2023/03/25 08:54:37;;;;;;;29.27;16.62;;;;;;;18.23;56.81;100096.09;1692384;83;21245;-60
2023/03/25 08:57:45;;;;;;;26.33;17.75;;;;;;;18.28;56.73;100097.10;1711666;83;21257;-58
2023/03/25 09:00:56;;;;;;;25.60;17.23;;;;;;;18.36;56.67;100100.91;1730874;82;21738;-58
2023/03/25 09:04:01;;;;;;;22.70;16.80;;;;;;;18.39;56.45;100094.97;1708998;83;21216;-59
2023/03/25 09:07:09;;;;;;;26.25;18.45;;;;;;;18.37;56.30;100083.22;1683970;85;21749;-59
2023/03/25 09:10:15;;;;;;;27.48;17.98;;;;;;;18.35;56.14;100085.91;1679771;84;21218;-60
2023/03/25 09:13:21;;;;;;;25.50;16.25;;;;;;;18.31;56.09;100084.70;1669240;86;21823;-59
2023/03/25 09:16:27;;;;;;;20.82;17.42;;;;;;;18.32;56.05;100073.91;1700481;82;21241;-60
2023/03/25 09:19:34;;;;;;;22.73;15.88;;;;;;;18.32;55.94;100078.92;1735595;81;21193;-58
2023/03/25 09:22:39;;;;;;;25.52;17.25;;;;;;;18.32;55.81;100074.76;1735820;82;21240;-59
2023/03/25 09:25:46;;;;;;;25.82;17.80;;;;;;;18.41;55.77;100076.16;1735844;82;21841;-59
2023/03/25 09:28:55;;;;;;;25.97;17.32;;;;;;;18.49;55.76;100068.90;1735119;82;21291;-59
2023/03/25 09:32:00;;;;;;;22.77;17.30;;;;;;;18.55;55.72;100069.91;1734919;81;21777;-60
2023/03/25 09:35:07;;;;;;;20.37;14.68;;;;;;;18.58;55.64;100079.98;1705127;82;21861;-59
2023/03/25 09:38:14;;;;;;;19.15;15.18;;;;;;;18.59;55.37;100069.72;1735389;81;21185;-60
2023/03/25 09:41:49;;;;;;;21.77;14.50;;;;;;;18.52;55.21;100066.22;1735055;82;21224;-59
2023/03/25 09:45:32;;;;;;;18.45;14.45;;;;;;;18.51;55.15;100070.05;1736060;81;21730;-59
2023/03/25 09:48:55;;;;;;;20.70;14.68;;;;;;;18.46;54.94;100063.83;1736310;82;21201;-59
2023/03/25 09:52:01;;;;;;;28.35;20.00;;;;;;;18.40;54.85;100062.00;1736317;81;21594;-60
2023/03/25 09:55:13;;;;;;;34.53;22.95;;;;;;;18.43;54.81;100059.28;1732801;81;21270;-59
2023/03/25 09:58:49;;;;;;;19.65;12.25;;;;;;;18.45;54.69;100057.98;1734937;82;21378;-60
2023/03/25 10:02:08;;;;;;;;;;;;;;;18.46;54.53;100054.13;1737582;82;21221;-59
2023/03/25 10:05:48;;;;;;;16.12;11.63;;;;;;;18.50;54.43;100051.20;1735380;82;20277;-59
2023/03/25 10:09:35;;;;;;;18.07;13.35;;;;;;;18.53;54.33;100049.34;1735002;82;21351;-59
2023/03/25 10:13:06;;;;;;;17.80;9.48;;;;;;;18.60;54.16;100042.33;1734877;81;21583;-59
2023/03/25 10:16:44;;;;;;;10.95;8.05;;;;;;;18.59;53.95;100040.08;1730151;82;21464;-58
2023/03/25 10:20:20;;;;;;;18.02;12.05;;;;;;;18.51;53.69;100045.95;1735539;82;21339;-59
2023/03/25 10:23:34;;;;;;;16.75;10.72;;;;;;;18.44;53.62;100032.72;1704543;83;21852;-59
2023/03/25 10:27:00;;;;;;;15.05;9.75;;;;;;;18.46;53.55;100029.17;1742273;81;21223;-58
2023/03/25 10:30:16;;;;;;;14.10;10.78;;;;;;;18.50;53.42;100026.25;1705672;83;21729;-58
2023/03/25 10:33:43;;;;;;;23.55;13.98;;;;;;;18.57;53.37;100017.28;1751100;81;21252;-59
2023/03/25 10:36:59;;;;;;;12.15;8.55;;;;;;;18.66;53.20;100017.23;1761049;79;21738;-59
2023/03/25 10:40:24;;;;;;;17.98;10.32;;;;;;;18.71;52.99;100010.44;1754251;81;21176;-59
2023/03/25 10:43:42;;;;;;;26.23;16.55;;;;;;;18.71;52.80;100002.69;1764474;81;21828;-58
2023/03/25 10:47:12;;;;;;;26.30;19.70;;;;;;;18.68;52.66;100008.15;1734208;82;21220;-60
2023/03/25 10:50:23;;;;;;;21.42;13.58;;;;;;;18.71;52.59;99995.19;1739696;81;21265;-59
2023/03/25 10:53:33;;;;;;;18.12;11.65;;;;;;;18.75;52.49;99995.04;1703310;84;21753;-59
2023/03/25 10:56:42;;;;;;;27.90;12.70;;;;;;;18.88;52.45;99993.97;1717897;83;21853;-59
2023/03/25 11:00:13;;;;;;;23.57;12.35;;;;;;;18.95;52.28;99987.75;1729003;82;21585;-59
2023/03/25 11:03:19;;;;;;;20.25;12.43;;;;;;;19.06;52.20;99990.55;1710249;82;21220;-59
2023/03/25 11:06:34;;;;;;;17.70;12.47;;;;;;;19.23;52.07;99979.02;1726352;81;21228;-58
2023/03/25 11:09:36;;;;;;;21.62;13.25;;;;;;;19.41;52.02;99963.37;1728335;82;21252;-59
2023/03/25 11:12:47;;;;;;;15.53;11.08;;;;;;;19.57;51.92;99962.63;1731256;83;21887;-58
2023/03/25 11:15:53;;;;;;;16.82;11.68;;;;;;;19.70;51.85;99963.73;1690166;84;21291;-58
2023/03/25 11:19:00;;;;;;;30.37;10.85;;;;;;;19.90;51.74;99964.19;1702308;84;21197;-58
2023/03/25 11:22:31;;;;;;;24.75;12.13;;;;;;;20.00;51.50;99953.25;1699486;83;21971;-59
2023/03/25 11:25:44;;;;;;;25.95;12.75;;;;;;;20.12;51.43;99952.68;1718612;83;21844;-59
2023/03/25 11:29:02;;;;;;;22.98;12.00;;;;;;;20.39;51.46;99940.72;1729384;82;21788;-59
2023/03/25 11:32:20;;;;;;;16.85;12.65;;;;;;;20.52;51.19;99940.94;1720328;83;21311;-59
2023/03/25 11:35:33;;;;;;;15.45;11.48;;;;;;;20.35;50.73;99941.47;1719694;83;21765;-59
2023/03/25 11:38:38;;;;;;;;;;;;;;;20.22;50.56;99937.06;1682937;83;21189;-59
2023/03/25 11:41:44;;;;;;;15.15;11.43;;;;;;;20.10;50.43;99942.34;1712521;83;20543;-59
2023/03/25 11:44:49;;;;;;;22.65;11.33;;;;;;;19.98;50.37;99929.06;1715353;83;21212;-59
2023/03/25 11:47:57;;;;;;;14.30;11.95;;;;;;;19.99;50.38;99926.57;1715976;83;21781;-59
2023/03/25 11:51:05;;;;;;;17.37;12.03;;;;;;;20.08;50.29;99927.31;1718165;82;21180;-59
2023/03/25 11:54:18;;;;;;;14.38;10.95;;;;;;;20.12;50.27;99916.55;1684555;83;21606;-60
2023/03/25 11:57:33;;;;;;;12.55;10.35;;;;;;;20.25;50.34;99919.03;1710398;82;21875;-60
2023/03/25 12:00:47;;;;;;;17.95;10.30;;;;;;;20.48;50.33;99913.35;1663427;84;21215;-59
2023/03/25 12:03:54;;;;;;;14.05;10.25;;;;;;;20.61;50.15;99914.42;1707163;82;21236;-59
2023/03/25 12:07:08;;;;;;;16.77;11.45;;;;;;;20.64;49.94;99910.56;1703472;82;21243;-59
2023/03/25 12:10:23;;;;;;;15.10;10.72;;;;;;;20.65;49.75;99913.66;1705958;84;21209;-59
2023/03/25 12:13:51;;;;;;;12.00;10.63;;;;;;;20.50;49.42;99916.16;1740734;82;21199;-59
2023/03/25 12:17:33;;;;;;;15.38;10.38;;;;;;;20.38;49.38;99914.55;1704990;84;21308;-59
2023/03/25 12:21:03;;;;;;;20.40;13.85;;;;;;;20.31;49.33;99918.06;1741759;82;21223;-59
2023/03/25 12:24:21;;;;;;;14.03;11.00;;;;;;;20.17;49.11;99920.28;1704558;82;21224;-58
2023/03/25 12:28:08;;;;;;;17.15;11.95;;;;;;;20.07;49.11;99919.23;1742286;81;21263;-59
2023/03/25 12:31:20;;;;;;;20.95;14.45;;;;;;;20.06;49.12;99922.54;1705289;84;21749;-60
2023/03/25 12:34:39;;;;;;;15.53;12.45;;;;;;;20.01;49.03;99914.67;1742105;81;21188;-60
2023/03/25 12:38:19;;;;;;;20.55;14.00;;;;;;;19.91;48.93;99915.84;1702149;83;21209;-60
2023/03/25 12:41:49;;;;;;;38.88;24.67;;;;;;;19.81;48.98;99919.80;1739573;81;21556;-59
2023/03/25 12:45:21;;;;;;;29.60;19.45;;;;;;;19.76;48.99;99910.82;1704185;84;21288;-59
2023/03/25 12:48:47;;;;;;;19.30;13.88;;;;;;;19.58;48.87;99919.34;1741054;82;21203;-59
2023/03/25 12:52:28;;;;;;;20.95;14.20;;;;;;;19.45;48.89;99915.98;1687838;83;21213;-60
2023/03/25 12:55:59;;;;;;;16.48;12.65;;;;;;;19.23;48.84;99905.47;1691728;84;21754;-59
2023/03/25 12:59:43;;;;;;;25.45;18.17;;;;;;;19.09;48.84;99901.84;1699034;82;21237;-59
2023/03/25 13:03:20;;;;;;;15.75;13.50;;;;;;;19.00;48.88;99894.41;1700607;83;21229;-60
2023/03/25 13:06:50;;;;;;;17.55;12.70;;;;;;;19.00;48.99;99883.31;1767584;81;21184;-60
2023/03/25 13:10:21;;;;;;;21.70;13.00;;;;;;;19.20;49.27;99878.21;1768290;81;21216;-59
2023/03/25 13:13:28;;;;;;;14.38;12.33;;;;;;;19.59;49.50;99863.24;1767518;81;21188;-58
2023/03/25 13:16:36;;;;;;;14.90;11.25;;;;;;;19.86;49.37;99856.02;1766942;81;21267;-59
2023/03/25 13:19:43;;;;;;;17.07;12.50;;;;;;;20.03;49.31;99852.71;1766452;81;21292;-60
2023/03/25 13:22:58;;;;;;;13.48;11.93;;;;;;;20.14;49.17;99862.42;1767176;81;21652;-59
2023/03/25 13:26:17;;;;;;;14.53;11.45;;;;;;;20.08;48.97;99863.92;1745501;81;21601;-59
2023/03/25 13:29:50;;;;;;;16.27;11.75;;;;;;;19.90;48.87;99865.55;1707826;84;21583;-59
2023/03/25 13:33:01;;;;;;;12.23;10.90;;;;;;;19.70;48.82;99859.58;1708541;84;21215;-59
2023/03/25 13:36:37;;;;;;;15.93;12.58;;;;;;;19.53;48.85;99858.68;1700504;84;21592;-59
2023/03/25 13:40:21;;;;;;;16.30;12.75;;;;;;;19.39;48.84;99855.89;1692105;84;21292;-58
2023/03/25 13:43:51;;;;;;;13.85;12.40;;;;;;;19.20;48.86;99852.41;1752609;81;21216;-58
2023/03/25 13:47:03;;;;;;;14.47;11.70;;;;;;;19.07;48.91;99838.80;1737459;82;21761;-58
2023/03/25 13:50:30;;;;;;;19.85;13.32;;;;;;;19.01;48.98;99837.00;1737994;82;21573;-59
2023/03/25 13:53:47;;;;;;;17.00;13.25;;;;;;;18.98;48.96;99823.06;1738124;82;21199;-59
2023/03/25 13:57:18;;;;;;;18.17;13.08;;;;;;;19.11;49.13;99824.19;1749056;81;21223;-59
2023/03/25 14:00:49;;;;;;;24.98;14.05;;;;;;;19.19;49.10;99814.62;1716187;83;21203;-59
2023/03/25 14:04:39;;;;;;;18.37;13.75;;;;;;;19.22;49.07;99806.66;1715765;82;21250;-59
2023/03/25 14:08:00;;;;;;;15.13;12.13;;;;;;;19.29;49.03;99806.02;1726565;80;21207;-60
2023/03/25 14:11:22;;;;;;;16.77;12.70;;;;;;;19.40;49.08;99793.72;1744246;82;21371;-59
2023/03/25 14:14:29;;;;;;;23.80;13.90;;;;;;;19.33;49.01;99793.86;1741661;81;21242;-59
2023/03/25 14:17:34;;;;;;;21.77;14.25;;;;;;;19.19;48.94;99788.27;1737167;82;21454;-60
2023/03/25 14:20:45;;;;;;;21.17;15.50;;;;;;;19.09;48.97;99790.28;1737928;82;21800;-59
2023/03/25 14:23:54;;;;;;;17.30;13.58;;;;;;;19.10;49.11;99786.44;1741945;82;21196;-58
2023/03/25 14:27:06;;;;;;;18.77;13.75;;;;;;;19.19;49.13;99782.19;1709803;82;21240;-58
2023/03/25 14:30:33;;;;;;;19.20;14.13;;;;;;;19.13;49.41;99779.01;1737362;81;21247;-59
2023/03/25 14:34:07;;;;;;;17.80;14.70;;;;;;;19.13;49.41;99779.01;1743139;82;21729;-59
2023/03/25 14:37:30;;;;;;;19.77;14.18;;;;;;;19.25;49.08;99785.89;1726723;82;21775;-59
2023/03/25 14:40:57;;;;;;;22.10;14.80;;;;;;;19.25;48.99;99791.44;1718962;82;21211;-60
2023/03/25 14:44:06;;;;;;;17.90;13.83;;;;;;;19.39;49.06;99790.13;1745720;82;21195;-59
2023/03/25 14:47:36;;;;;;;29.80;22.93;;;;;;;19.48;49.01;99791.94;1745208;82;21215;-60
2023/03/25 14:50:43;;;;;;;22.00;16.97;;;;;;;19.41;48.96;99789.88;1711598;82;21220;-59